Paragon — WDD4086 — position and weather

sailwx.info

Track history (hours):
 
Tides and Currents Weather Stations Pressure Air Temp Water Temp Dewpoint Dewpoint Depression Visibility Wind Speed Wind Dir Waves Ship Positions

Paragon

Owner: Rainier Investments Inc., Edmonds, WA. More information available from US FCC via Universal Licensing System and Coast Guard Vessel Documentation Center.

Last reported at 2017-Oct-07 09:42 UTC. Time now 2017-Nov-19 21:51 UTC.
Position N 58°19' W 136°12'.
Warning: this ship's position is 43 days out of date.

Length 31 m; draft 3 m.

Type: Fishing. MMSI: 367530000.

Date/timePositionNaut miles runAvg speedWind from/ knotsBaromVisibWave heightAir tempDewpointWater temp
2017-Oct-07 09:42N 58°19' W 136°12'2 9.1
2017-Oct-07 09:30N 58°19' W 136°09'4 8.3
2017-Oct-07 09:00N 58°20' W 136°01'4 7.7
2017-Oct-07 08:30N 58°19' W 135°54'4 8.1
2017-Oct-07 08:00N 58°18' W 135°47'4 8.6
2017-Oct-07 07:30N 58°17' W 135°39'272 6.8
2017-Oct-05 15:21N 54°39' W 130°44'3 9.3
2017-Oct-05 15:00N 54°37' W 130°40'4 8.8
2017-Oct-05 14:30N 54°32' W 130°39'5 9.0
2017-Oct-05 14:00N 54°28' W 130°37'5 9.3
2017-Oct-05 13:30N 54°23' W 130°36'5 9.7
2017-Oct-05 13:00N 54°19' W 130°34'5 9.9
2017-Oct-05 12:30N 54°14' W 130°30'510.0
2017-Oct-05 12:00N 54°10' W 130°26'5 9.9
2017-Oct-05 11:30N 54°06' W 130°21'5 9.2
2017-Oct-05 11:00N 54°03' W 130°15'5 9.7
2017-Oct-05 10:30N 53°58' W 130°12'4 9.0
2017-Oct-05 10:00N 53°54' W 130°09'5 9.8
2017-Oct-05 09:30N 53°51' W 130°02'5 9.5
2017-Oct-05 08:59N 53°47' W 129°57'4 9.4
2017-Oct-05 08:30N 53°44' W 129°51'92 8.4
2017-Oct-04 21:35N 52°28' W 128°27'1 9.0
2017-Oct-04 21:29N 52°27' W 128°27'4 9.3
2017-Oct-04 21:00N 52°23' W 128°31'13 8.1
2017-Oct-04 19:26N 52°15' W 128°15'4 9.7
2017-Oct-04 19:00N 52°13' W 128°09'4 7.6
2017-Oct-04 18:29N 52°10' W 128°08'4 9.5
2017-Oct-04 18:00N 52°05' W 128°07'5 9.2
2017-Oct-04 17:30N 52°05' W 127°59'4 8.1
2017-Oct-04 16:58N 52°01' W 127°56'4 9.1
2017-Oct-04 16:30N 51°57' W 127°56'5 9.2
2017-Oct-04 16:00N 51°52' W 127°56'5 9.3
2017-Oct-04 15:30N 51°48' W 127°56'5 9.3
2017-Oct-04 15:00N 51°43' W 127°56'5 9.0
2017-Oct-04 14:30N 51°39' W 127°54'4 8.9
2017-Oct-04 14:00N 51°34' W 127°52'4 8.7
2017-Oct-04 13:30N 51°30' W 127°50'5 8.9
2017-Oct-04 13:00N 51°26' W 127°51'4 8.8
2017-Oct-04 12:30N 51°21' W 127°52'5 9.4
2017-Oct-04 12:00N 51°17' W 127°54'5 9.8
2017-Oct-04 11:30N 51°12' W 127°54'510.4
2017-Oct-04 11:00N 51°07' W 127°51'510.4
2017-Oct-04 10:30N 51°02' W 127°48'510.1
2017-Oct-04 10:00N 50°58' W 127°44'5 9.9
2017-Oct-04 09:30N 50°54' W 127°38'5 9.9
2017-Oct-04 09:00N 50°52' W 127°32'510.0
2017-Oct-04 08:30N 50°49' W 127°25'5 9.4
2017-Oct-04 08:01N 50°45' W 127°21'5 9.7
2017-Oct-04 07:27N 50°41' W 127°16'4 9.5
2017-Oct-04 07:00N 50°38' W 127°11'5 8.8
2017-Oct-04 06:26N 50°37' W 127°03'4 9.2
2017-Oct-04 06:00N 50°35' W 126°57'5 9.2
2017-Oct-04 05:29N 50°34' W 126°50'1310.3
2017-Oct-04 04:11N 50°30' W 126°30'210.3
2017-Oct-04 03:58N 50°30' W 126°27'510.6
2017-Oct-04 03:30N 50°30' W 126°19'3511.1
2017-Oct-04 00:22N 50°20' W 125°26'410.4
2017-Oct-04 00:01N 50°17' W 125°24'510.1
2017-Oct-03 23:30N 50°12' W 125°22'4 8.8
2017-Oct-03 23:01N 50°08' W 125°21'1 1.5
2017-Oct-03 22:31N 50°08' W 125°23'0 0.1
2017-Oct-03 22:01N 50°08' W 125°23'0 0.0
2017-Oct-03 21:30N 50°08' W 125°23'0 0.0
2017-Oct-03 21:01N 50°08' W 125°23'0 0.0
2017-Oct-03 20:30N 50°08' W 125°23'0 0.1
2017-Oct-03 20:00N 50°08' W 125°23'1 1.8
2017-Oct-03 19:30N 50°08' W 125°21'2 4.3
2017-Oct-03 19:00N 50°07' W 125°18'4 7.3
2017-Oct-03 18:30N 50°04' W 125°15'4 7.5
2017-Oct-03 18:00N 50°00' W 125°13'5 9.4
2017-Oct-03 17:29N 49°57' W 125°07'5 9.6
2017-Oct-03 17:01N 49°54' W 125°02'5 9.6
2017-Oct-03 16:30N 49°50' W 124°57'5 9.5
2017-Oct-03 16:00N 49°47' W 124°51'5 9.3
2017-Oct-03 15:30N 49°44' W 124°46'5 9.1
2017-Oct-03 15:00N 49°40' W 124°42'9 8.9
2017-Oct-03 14:00N 49°33' W 124°33'4 8.5
2017-Oct-03 13:30N 49°30' W 124°29'4 8.8
2017-Oct-03 13:00N 49°27' W 124°24'5 9.4
2017-Oct-03 12:30N 49°25' W 124°17'5 9.3
2017-Oct-03 12:00N 49°23' W 124°11'4 8.9
2017-Oct-03 11:30N 49°21' W 124°05'5 9.1
2017-Oct-03 11:00N 49°19' W 123°59'4 8.9
2017-Oct-03 10:30N 49°17' W 123°53'5 9.2
2017-Oct-03 10:00N 49°15' W 123°46'4 8.7
2017-Oct-03 09:30N 49°13' W 123°40'4 9.0
2017-Oct-03 09:00N 49°11' W 123°34'5 9.5
2017-Oct-03 08:30N 49°09' W 123°28'5 9.8
2017-Oct-03 08:00N 49°05' W 123°22'5 9.7
2017-Oct-03 07:30N 49°02' W 123°17'510.0
2017-Oct-03 07:00N 48°59' W 123°11'5 9.6
2017-Oct-03 06:30N 48°56' W 123°06'5 9.6
2017-Oct-03 06:00N 48°53' W 123°00'5 9.1
2017-Oct-03 05:30N 48°50' W 122°55'4 8.8
2017-Oct-03 05:00N 48°47' W 122°50'4 8.7
2017-Oct-03 04:30N 48°44' W 122°45'4 7.9
2017-Oct-03 04:00N 48°40' W 122°42'4 7.3
2017-Oct-03 03:30N 48°37' W 122°45'3 6.7
2017-Oct-03 03:00N 48°34' W 122°45'4 7.5
2017-Oct-03 02:30N 48°30' W 122°44'4 8.1
2017-Oct-03 02:00N 48°26' W 122°44'27 8.4
2017-Oct-02 22:47N 47°59' W 122°35'3 8.7
2017-Oct-02 22:29N 47°57' W 122°33'9 8.4
2017-Oct-02 21:24N 47°49' W 122°27'3 8.7
2017-Oct-02 21:00N 47°46' W 122°26'4 8.4
2017-Oct-02 20:30N 47°42' W 122°25'2 4.0
2017-Oct-02 20:00N 47°40' W 122°24'0 0.6
2017-Oct-02 19:30N 47°40' W 122°23'0 0.2
2017-Oct-02 19:00N 47°40' W 122°23'0 0.0
2017-Oct-02 18:30N 47°40' W 122°23'1 1.3
2017-Oct-02 18:00N 47°39' W 122°23'  
Track history (hours):
 
Tides and Currents Weather Stations Pressure Air Temp Water Temp Dewpoint Dewpoint Depression Visibility Wind Speed Wind Dir Waves Ship Positions

Paragon

Owner: Rainier Investments Inc., Edmonds, WA. More information available from US FCC via Universal Licensing System and Coast Guard Vessel Documentation Center.

Last reported at 2017-Oct-07 09:42 UTC. Time now 2017-Nov-19 21:51 UTC.
Position N 58°19' W 136°12'.
Warning: this ship's position is 43 days out of date.

Length 31 m; draft 3 m.

Type: Fishing. MMSI: 367530000.

Date/timePositionNaut miles runAvg speedWind from/ knotsBaromVisibWave heightAir tempDewpointWater temp
2017-Oct-07 09:42N 58°19' W 136°12'2 9.1
2017-Oct-07 09:30N 58°19' W 136°09'4 8.3
2017-Oct-07 09:00N 58°20' W 136°01'4 7.7
2017-Oct-07 08:30N 58°19' W 135°54'4 8.1
2017-Oct-07 08:00N 58°18' W 135°47'4 8.6
2017-Oct-07 07:30N 58°17' W 135°39'272 6.8
2017-Oct-05 15:21N 54°39' W 130°44'3 9.3
2017-Oct-05 15:00N 54°37' W 130°40'4 8.8
2017-Oct-05 14:30N 54°32' W 130°39'5 9.0
2017-Oct-05 14:00N 54°28' W 130°37'5 9.3
2017-Oct-05 13:30N 54°23' W 130°36'5 9.7
2017-Oct-05 13:00N 54°19' W 130°34'5 9.9
2017-Oct-05 12:30N 54°14' W 130°30'510.0
2017-Oct-05 12:00N 54°10' W 130°26'5 9.9
2017-Oct-05 11:30N 54°06' W 130°21'5 9.2
2017-Oct-05 11:00N 54°03' W 130°15'5 9.7
2017-Oct-05 10:30N 53°58' W 130°12'4 9.0
2017-Oct-05 10:00N 53°54' W 130°09'5 9.8
2017-Oct-05 09:30N 53°51' W 130°02'5 9.5
2017-Oct-05 08:59N 53°47' W 129°57'4 9.4
2017-Oct-05 08:30N 53°44' W 129°51'92 8.4
2017-Oct-04 21:35N 52°28' W 128°27'1 9.0
2017-Oct-04 21:29N 52°27' W 128°27'4 9.3
2017-Oct-04 21:00N 52°23' W 128°31'13 8.1
2017-Oct-04 19:26N 52°15' W 128°15'4 9.7
2017-Oct-04 19:00N 52°13' W 128°09'4 7.6
2017-Oct-04 18:29N 52°10' W 128°08'4 9.5
2017-Oct-04 18:00N 52°05' W 128°07'5 9.2
2017-Oct-04 17:30N 52°05' W 127°59'4 8.1
2017-Oct-04 16:58N 52°01' W 127°56'4 9.1
2017-Oct-04 16:30N 51°57' W 127°56'5 9.2
2017-Oct-04 16:00N 51°52' W 127°56'5 9.3
2017-Oct-04 15:30N 51°48' W 127°56'5 9.3
2017-Oct-04 15:00N 51°43' W 127°56'5 9.0
2017-Oct-04 14:30N 51°39' W 127°54'4 8.9
2017-Oct-04 14:00N 51°34' W 127°52'4 8.7
2017-Oct-04 13:30N 51°30' W 127°50'5 8.9
2017-Oct-04 13:00N 51°26' W 127°51'4 8.8
2017-Oct-04 12:30N 51°21' W 127°52'5 9.4
2017-Oct-04 12:00N 51°17' W 127°54'5 9.8
2017-Oct-04 11:30N 51°12' W 127°54'510.4
2017-Oct-04 11:00N 51°07' W 127°51'510.4
2017-Oct-04 10:30N 51°02' W 127°48'510.1
2017-Oct-04 10:00N 50°58' W 127°44'5 9.9
2017-Oct-04 09:30N 50°54' W 127°38'5 9.9
2017-Oct-04 09:00N 50°52' W 127°32'510.0
2017-Oct-04 08:30N 50°49' W 127°25'5 9.4
2017-Oct-04 08:01N 50°45' W 127°21'5 9.7
2017-Oct-04 07:27N 50°41' W 127°16'4 9.5
2017-Oct-04 07:00N 50°38' W 127°11'5 8.8
2017-Oct-04 06:26N 50°37' W 127°03'4 9.2
2017-Oct-04 06:00N 50°35' W 126°57'5 9.2
2017-Oct-04 05:29N 50°34' W 126°50'1310.3
2017-Oct-04 04:11N 50°30' W 126°30'210.3
2017-Oct-04 03:58N 50°30' W 126°27'510.6
2017-Oct-04 03:30N 50°30' W 126°19'3511.1
2017-Oct-04 00:22N 50°20' W 125°26'410.4
2017-Oct-04 00:01N 50°17' W 125°24'510.1
2017-Oct-03 23:30N 50°12' W 125°22'4 8.8
2017-Oct-03 23:01N 50°08' W 125°21'1 1.5
2017-Oct-03 22:31N 50°08' W 125°23'0 0.1
2017-Oct-03 22:01N 50°08' W 125°23'0 0.0
2017-Oct-03 21:30N 50°08' W 125°23'0 0.0
2017-Oct-03 21:01N 50°08' W 125°23'0 0.0
2017-Oct-03 20:30N 50°08' W 125°23'0 0.1
2017-Oct-03 20:00N 50°08' W 125°23'1 1.8
2017-Oct-03 19:30N 50°08' W 125°21'2 4.3
2017-Oct-03 19:00N 50°07' W 125°18'4 7.3
2017-Oct-03 18:30N 50°04' W 125°15'4 7.5
2017-Oct-03 18:00N 50°00' W 125°13'5 9.4
2017-Oct-03 17:29N 49°57' W 125°07'5 9.6
2017-Oct-03 17:01N 49°54' W 125°02'5 9.6
2017-Oct-03 16:30N 49°50' W 124°57'5 9.5
2017-Oct-03 16:00N 49°47' W 124°51'5 9.3
2017-Oct-03 15:30N 49°44' W 124°46'5 9.1
2017-Oct-03 15:00N 49°40' W 124°42'9 8.9
2017-Oct-03 14:00N 49°33' W 124°33'4 8.5
2017-Oct-03 13:30N 49°30' W 124°29'4 8.8
2017-Oct-03 13:00N 49°27' W 124°24'5 9.4
2017-Oct-03 12:30N 49°25' W 124°17'5 9.3
2017-Oct-03 12:00N 49°23' W 124°11'4 8.9
2017-Oct-03 11:30N 49°21' W 124°05'5 9.1
2017-Oct-03 11:00N 49°19' W 123°59'4 8.9
2017-Oct-03 10:30N 49°17' W 123°53'5 9.2
2017-Oct-03 10:00N 49°15' W 123°46'4 8.7
2017-Oct-03 09:30N 49°13' W 123°40'4 9.0
2017-Oct-03 09:00N 49°11' W 123°34'5 9.5
2017-Oct-03 08:30N 49°09' W 123°28'5 9.8
2017-Oct-03 08:00N 49°05' W 123°22'5 9.7
2017-Oct-03 07:30N 49°02' W 123°17'510.0
2017-Oct-03 07:00N 48°59' W 123°11'5 9.6
2017-Oct-03 06:30N 48°56' W 123°06'5 9.6
2017-Oct-03 06:00N 48°53' W 123°00'5 9.1
2017-Oct-03 05:30N 48°50' W 122°55'4 8.8
2017-Oct-03 05:00N 48°47' W 122°50'4 8.7
2017-Oct-03 04:30N 48°44' W 122°45'4 7.9
2017-Oct-03 04:00N 48°40' W 122°42'4 7.3
2017-Oct-03 03:30N 48°37' W 122°45'3 6.7
2017-Oct-03 03:00N 48°34' W 122°45'4 7.5
2017-Oct-03 02:30N 48°30' W 122°44'4 8.1
2017-Oct-03 02:00N 48°26' W 122°44'27 8.4
2017-Oct-02 22:47N 47°59' W 122°35'3 8.7
2017-Oct-02 22:29N 47°57' W 122°33'9 8.4
2017-Oct-02 21:24N 47°49' W 122°27'3 8.7
2017-Oct-02 21:00N 47°46' W 122°26'4 8.4
2017-Oct-02 20:30N 47°42' W 122°25'2 4.0
2017-Oct-02 20:00N 47°40' W 122°24'0 0.6
2017-Oct-02 19:30N 47°40' W 122°23'0 0.2
2017-Oct-02 19:00N 47°40' W 122°23'0 0.0
2017-Oct-02 18:30N 47°40' W 122°23'1 1.3
2017-Oct-02 18:00N 47°39' W 122°23'  

Dump ship's entire track history